createdAt,value
2023-01-17T00:00:08.036Z,2.65
2023-01-17T00:02:35.737Z,2.17
2023-01-17T00:05:23.033Z,2.38
2023-01-17T00:08:08.996Z,1.63
2023-01-17T00:10:41.033Z,2.42
2023-01-17T00:13:08.930Z,2.53
2023-01-17T00:15:39.838Z,2.75
2023-01-17T00:18:07.630Z,2.60
2023-01-17T00:20:53.567Z,2.13
2023-01-17T00:23:44.751Z,1.75
2023-01-17T00:26:19.707Z,2.03
2023-01-17T00:28:49.352Z,2.42
2023-01-17T00:31:17.721Z,2.45
2023-01-17T00:33:45.494Z,1.80
2023-01-17T00:36:13.275Z,2.05
2023-01-17T00:38:41.337Z,1.77
2023-01-17T00:41:14.313Z,2.53
2023-01-17T00:44:00.606Z,2.60
2023-01-17T00:46:47.034Z,1.70
2023-01-17T00:52:19.805Z,1.90
2023-01-17T00:55:05.989Z,2.17
2023-01-17T00:57:52.073Z,1.88
2023-01-17T01:00:38.360Z,2.20
2023-01-17T01:03:29.777Z,1.73
2023-01-17T01:06:15.954Z,2.10
2023-01-17T01:09:02.182Z,2.22
2023-01-17T01:11:48.279Z,2.65
2023-01-17T01:14:34.395Z,1.73
2023-01-17T01:17:20.583Z,2.00
2023-01-17T01:20:06.760Z,1.55
2023-01-17T01:22:52.791Z,1.52
2023-01-17T01:25:38.858Z,1.10
2023-01-17T01:28:32.916Z,1.13
2023-01-17T01:31:24.415Z,1.08
2023-01-17T01:33:53.380Z,1.35
2023-01-17T01:36:21.102Z,1.10
2023-01-17T01:38:50.235Z,1.05
2023-01-17T01:41:20.202Z,0.90
2023-01-17T01:43:55.640Z,1.25
2023-01-17T01:46:32.358Z,1.15
2023-01-17T01:49:07.534Z,1.00
2023-01-17T01:51:49.726Z,1.00
2023-01-17T01:54:22.627Z,1.77
2023-01-17T01:56:52.567Z,1.98
2023-01-17T01:59:22.665Z,1.38
2023-01-17T02:01:53.143Z,1.60
2023-01-17T02:04:21.829Z,1.58
2023-01-17T02:06:54.789Z,0.90
2023-01-17T02:09:23.784Z,0.65
2023-01-17T02:11:51.506Z,0.85
2023-01-17T02:14:21.089Z,1.00
2023-01-17T02:17:23.311Z,0.80
2023-01-17T02:20:06.018Z,1.10
2023-01-17T02:23:02.842Z,0.90
2023-01-17T02:28:32.383Z,0.77
2023-01-17T02:31:23.488Z,0.65
2023-01-17T02:34:09.356Z,0.73
2023-01-17T02:36:43.564Z,0.77
2023-01-17T02:39:30.056Z,0.50
2023-01-17T02:42:02.624Z,1.05
2023-01-17T02:44:39.482Z,0.90
2023-01-17T02:47:28.727Z,0.70
2023-01-17T02:50:05.147Z,0.90
2023-01-17T02:52:53.400Z,0.90
2023-01-17T02:55:28.586Z,0.90
2023-01-17T02:58:08.318Z,0.80
2023-01-17T03:01:17.476Z,0.50
2023-01-17T03:03:50.886Z,0.95
2023-01-17T03:06:54.603Z,0.75
2023-01-17T03:09:22.781Z,0.47
2023-01-17T03:11:50.471Z,0.80
2023-01-17T03:14:18.092Z,0.90
2023-01-17T03:16:46.244Z,1.05
2023-01-17T03:19:15.040Z,1.08
2023-01-17T03:21:43.005Z,1.05
2023-01-17T03:24:10.633Z,0.93
2023-01-17T03:26:38.291Z,1.52
2023-01-17T03:29:05.903Z,0.77
2023-01-17T03:31:33.649Z,1.10
2023-01-17T03:34:01.247Z,0.85
2023-01-17T03:36:28.890Z,0.82
2023-01-17T03:38:56.903Z,0.80
2023-01-17T03:41:25.419Z,0.82
2023-01-17T03:43:53.036Z,1.13
2023-01-17T03:46:24.982Z,0.85
2023-01-17T03:48:52.914Z,1.00
2023-01-17T03:51:20.953Z,1.42
2023-01-17T03:53:50.040Z,1.30
2023-01-17T03:56:18.087Z,1.30
2023-01-17T03:58:45.801Z,0.52
2023-01-17T04:01:13.577Z,1.10
2023-01-17T04:03:41.661Z,0.80
2023-01-17T04:06:09.319Z,1.60
2023-01-17T04:08:36.914Z,1.38
2023-01-17T04:11:04.759Z,1.15
2023-01-17T04:13:32.367Z,1.20
2023-01-17T04:16:00.030Z,1.30
2023-01-17T04:18:27.942Z,1.25
2023-01-17T04:20:55.580Z,0.90
2023-01-17T04:23:23.270Z,0.82
2023-01-17T04:25:50.967Z,2.00
2023-01-17T04:28:18.574Z,1.88
2023-01-17T04:30:46.169Z,1.20
2023-01-17T04:33:13.802Z,1.00
2023-01-17T04:35:41.470Z,0.82
2023-01-17T04:38:09.053Z,1.60
2023-01-17T04:40:36.821Z,1.40
2023-01-17T04:43:04.497Z,1.30
2023-01-17T04:45:32.046Z,1.20
2023-01-17T04:48:05.115Z,1.77
2023-01-17T04:50:33.801Z,1.58
2023-01-17T04:53:01.491Z,1.40
2023-01-17T04:55:29.091Z,1.42
2023-01-17T04:57:57.013Z,1.10
2023-01-17T05:00:24.674Z,1.45
2023-01-17T05:02:52.471Z,1.88
2023-01-17T05:05:20.279Z,2.25
2023-01-17T05:07:55.726Z,2.60
2023-01-17T05:10:23.978Z,1.65
2023-01-17T05:12:56.663Z,2.22
2023-01-17T05:15:25.660Z,1.10
2023-01-17T05:17:54.058Z,1.08
2023-01-17T05:20:23.269Z,1.33
2023-01-17T05:22:58.179Z,1.83
2023-01-17T05:25:28.368Z,1.20
2023-01-17T05:27:56.260Z,1.85
2023-01-17T05:30:23.846Z,1.60
2023-01-17T05:32:53.572Z,1.27
2023-01-17T05:35:24.474Z,1.27
2023-01-17T05:37:52.560Z,1.48
2023-01-17T05:40:23.889Z,1.40
2023-01-17T05:42:53.725Z,0.60
2023-01-17T05:45:23.373Z,1.10
2023-01-17T05:47:53.104Z,1.70
2023-01-17T05:50:26.730Z,2.40
2023-01-17T05:53:00.246Z,1.50
2023-01-17T05:55:28.858Z,1.33
2023-01-17T05:57:56.992Z,1.00
2023-01-17T06:00:25.468Z,1.10
2023-01-17T06:02:57.179Z,1.20
2023-01-17T06:05:25.860Z,1.15
2023-01-17T06:07:53.854Z,1.00
2023-01-17T06:10:22.837Z,1.35
2023-01-17T06:12:50.910Z,0.85
2023-01-17T06:15:18.768Z,1.48
2023-01-17T06:17:46.410Z,1.92
2023-01-17T06:20:16.264Z,2.28
2023-01-17T06:22:43.853Z,2.00
2023-01-17T06:25:14.139Z,1.92
2023-01-17T06:27:41.703Z,4.95
2023-01-17T06:30:18.996Z,4.00
2023-01-17T06:32:53.813Z,2.63
2023-01-17T06:35:24.413Z,2.53
2023-01-17T06:37:55.385Z,3.90
2023-01-17T06:40:23.137Z,4.78
2023-01-17T06:42:51.346Z,3.10
2023-01-17T06:45:19.910Z,2.95
2023-01-17T06:47:47.638Z,3.00
2023-01-17T06:50:16.224Z,3.80
2023-01-17T06:52:43.967Z,3.85
2023-01-17T06:55:11.688Z,3.88
2023-01-17T06:57:39.358Z,5.47
2023-01-17T07:00:07.863Z,3.80
2023-01-17T07:02:35.420Z,3.10
2023-01-17T07:05:03.071Z,3.08
2023-01-17T07:07:33.805Z,3.83
2023-01-17T07:10:03.554Z,3.60
2023-01-17T07:12:33.687Z,5.45
2023-01-17T07:15:01.291Z,4.40
2023-01-17T07:17:28.914Z,5.38
2023-01-17T07:19:56.628Z,4.85
2023-01-17T07:22:24.280Z,4.82
2023-01-17T07:24:58.573Z,5.22
2023-01-17T07:27:30.305Z,3.72
2023-01-17T07:29:58.329Z,4.63
2023-01-17T07:32:29.609Z,3.85
2023-01-17T07:34:58.186Z,4.03
2023-01-17T07:37:26.477Z,3.83
2023-01-17T07:39:54.747Z,4.78
2023-01-17T07:42:24.181Z,6.25
2023-01-17T07:44:52.271Z,7.70
2023-01-17T07:47:20.212Z,5.60
2023-01-17T07:49:50.165Z,6.18
2023-01-17T07:52:20.340Z,6.32
2023-01-17T07:54:48.265Z,7.00
2023-01-17T07:57:16.878Z,10.63
2023-01-17T07:59:44.630Z,9.80
2023-01-17T08:02:20.514Z,4.53
2023-01-17T08:07:16.727Z,4.00
2023-01-17T08:09:49.765Z,3.75
2023-01-17T08:12:17.646Z,7.35
2023-01-17T08:14:45.200Z,6.70
2023-01-17T08:17:18.475Z,5.90
2023-01-17T08:19:46.139Z,6.18
2023-01-17T08:22:13.867Z,9.52
2023-01-17T08:24:42.185Z,7.22
2023-01-17T08:27:10.063Z,7.35
2023-01-17T08:29:37.684Z,8.55
2023-01-17T08:32:05.469Z,6.28
2023-01-17T08:34:36.174Z,5.63
2023-01-17T08:37:04.006Z,5.78
2023-01-17T08:39:31.580Z,4.85
2023-01-17T08:42:01.764Z,5.63
2023-01-17T08:44:29.358Z,6.78
2023-01-17T08:46:57.287Z,5.20
2023-01-17T08:49:25.070Z,5.63
2023-01-17T08:51:55.314Z,5.28
2023-01-17T08:54:23.215Z,5.05
2023-01-17T08:56:53.154Z,4.40
2023-01-17T08:59:20.819Z,3.90
2023-01-17T09:01:48.489Z,3.97
2023-01-17T09:04:16.362Z,3.88
2023-01-17T09:06:48.889Z,5.88
2023-01-17T09:09:17.434Z,13.82
2023-01-17T09:11:44.998Z,7.72
2023-01-17T09:14:13.604Z,3.55
2023-01-17T09:16:41.465Z,3.88
2023-01-17T09:19:09.587Z,4.00
2023-01-17T09:21:37.136Z,4.05
2023-01-17T09:24:04.908Z,3.95
2023-01-17T09:26:32.897Z,5.43
2023-01-17T09:29:01.935Z,6.38
2023-01-17T09:31:29.750Z,6.30
2023-01-17T09:33:58.379Z,6.32
2023-01-17T09:36:31.930Z,10.00
2023-01-17T09:38:59.765Z,8.20
2023-01-17T09:41:34.472Z,6.63
2023-01-17T09:44:16.520Z,7.05
2023-01-17T09:46:47.283Z,5.63
2023-01-17T09:49:30.344Z,8.02
2023-01-17T09:51:58.527Z,5.45
2023-01-17T09:54:37.889Z,5.60
2023-01-17T09:57:40.695Z,9.63
2023-01-17T10:00:13.030Z,8.43
2023-01-17T10:02:50.960Z,10.13
2023-01-17T10:05:28.445Z,6.25
2023-01-17T10:08:13.883Z,7.20
2023-01-17T10:10:55.141Z,6.30
2023-01-17T10:13:42.428Z,6.35
2023-01-17T10:16:32.205Z,7.60
2023-01-17T10:19:08.845Z,7.90
2023-01-17T10:21:50.676Z,7.53
2023-01-17T10:24:33.693Z,7.22
2023-01-17T10:27:03.311Z,6.88
2023-01-17T10:29:35.547Z,5.95
2023-01-17T10:32:03.472Z,5.70
2023-01-17T10:34:43.838Z,7.15
2023-01-17T10:37:17.607Z,6.13
2023-01-17T10:39:48.439Z,5.78
2023-01-17T10:42:29.284Z,6.30
2023-01-17T10:45:13.696Z,5.65
2023-01-17T10:47:46.162Z,5.55
2023-01-17T10:50:14.537Z,5.28
2023-01-17T10:52:52.862Z,5.15
2023-01-17T10:55:35.666Z,4.18
2023-01-17T10:58:03.672Z,3.47
2023-01-17T11:00:44.462Z,2.15
2023-01-17T11:03:14.984Z,2.58
2023-01-17T11:05:43.445Z,2.60
2023-01-17T11:08:13.860Z,1.60
2023-01-17T11:10:50.081Z,1.73
2023-01-17T11:13:29.089Z,1.90
2023-01-17T11:16:06.702Z,2.50
2023-01-17T11:18:39.806Z,2.25
2023-01-17T11:21:24.429Z,1.50
2023-01-17T11:23:56.907Z,2.05
2023-01-17T11:26:30.652Z,1.50
2023-01-17T11:29:39.049Z,1.70
2023-01-17T11:32:21.455Z,1.70
2023-01-17T11:35:10.128Z,2.15
2023-01-17T11:37:39.223Z,1.65
2023-01-17T11:40:09.249Z,1.73
2023-01-17T11:42:38.795Z,1.70
2023-01-17T11:45:34.101Z,2.15
2023-01-17T11:48:11.707Z,1.73
2023-01-17T11:50:48.000Z,1.23
2023-01-17T11:53:20.536Z,1.27
2023-01-17T11:55:58.560Z,1.77
2023-01-17T11:58:31.790Z,2.03
2023-01-17T12:01:19.792Z,1.92
2023-01-17T12:04:18.853Z,2.00
2023-01-17T12:07:21.981Z,2.25
2023-01-17T12:10:02.845Z,2.90
2023-01-17T12:13:20.331Z,1.73
2023-01-17T12:16:32.907Z,1.40
2023-01-17T12:19:19.245Z,1.38
2023-01-17T12:21:52.987Z,1.38
2023-01-17T12:24:39.828Z,1.70
2023-01-17T12:27:22.917Z,1.48
2023-01-17T12:30:10.909Z,1.83
2023-01-17T12:33:02.731Z,1.73
2023-01-17T12:35:42.887Z,1.92
2023-01-17T12:38:31.813Z,1.40
2023-01-17T12:41:03.284Z,1.23
2023-01-17T12:43:35.380Z,1.45
2023-01-17T12:46:27.323Z,1.80
2023-01-17T12:49:21.087Z,1.75
2023-01-17T12:52:13.059Z,1.25
2023-01-17T12:54:47.971Z,1.35
2023-01-17T12:57:22.029Z,2.33
2023-01-17T13:00:13.099Z,1.40
2023-01-17T13:03:33.852Z,1.67
2023-01-17T13:06:24.875Z,1.88
2023-01-17T13:08:59.638Z,1.23
2023-01-17T13:11:46.690Z,1.83
2023-01-17T13:14:14.432Z,1.20
2023-01-17T13:16:48.446Z,1.00
2023-01-17T13:19:59.213Z,3.55
2023-01-17T13:22:28.926Z,4.07
2023-01-17T13:25:26.985Z,1.58
2023-01-17T13:27:57.763Z,1.23
2023-01-17T13:30:37.525Z,1.15
2023-01-17T13:33:13.200Z,1.85
2023-01-17T13:36:05.507Z,1.60
2023-01-17T13:39:17.184Z,2.33
2023-01-17T13:42:03.018Z,1.67
2023-01-17T13:44:48.497Z,1.42
2023-01-17T13:47:19.178Z,2.20
2023-01-17T13:49:49.569Z,3.53
2023-01-17T13:52:20.652Z,2.03
2023-01-17T13:55:04.628Z,1.55
2023-01-17T13:57:43.745Z,2.90
2023-01-17T14:00:21.380Z,1.73
2023-01-17T14:02:54.707Z,1.75
2023-01-17T14:05:38.912Z,1.98
2023-01-17T14:08:14.976Z,1.92
2023-01-17T14:10:54.513Z,2.83
2023-01-17T14:13:40.432Z,1.63
2023-01-17T14:16:28.416Z,2.08
2023-01-17T14:18:56.570Z,1.70
2023-01-17T14:21:33.912Z,2.10
2023-01-17T14:24:10.601Z,2.03
2023-01-17T14:26:57.038Z,1.58
2023-01-17T14:32:37.979Z,1.20
2023-01-17T14:35:06.710Z,1.20
2023-01-17T14:37:43.491Z,0.90
2023-01-17T14:40:19.260Z,1.52
2023-01-17T14:42:51.472Z,2.30
2023-01-17T14:45:27.891Z,2.08
2023-01-17T14:47:59.820Z,1.85
2023-01-17T14:50:30.908Z,2.25
2023-01-17T14:53:26.178Z,2.40
2023-01-17T14:55:56.781Z,1.40
2023-01-17T14:58:33.773Z,2.40
2023-01-17T15:01:11.849Z,1.33
2023-01-17T15:03:54.807Z,1.52
2023-01-17T15:06:30.136Z,1.27
2023-01-17T15:09:03.731Z,1.63
2023-01-17T15:11:35.811Z,2.25
2023-01-17T15:14:06.406Z,1.75
2023-01-17T15:16:37.404Z,1.75
2023-01-17T15:19:14.056Z,2.63
2023-01-17T15:21:48.088Z,3.78
2023-01-17T15:24:22.729Z,3.17
2023-01-17T15:26:50.863Z,3.83
2023-01-17T15:29:21.504Z,2.58
2023-01-17T15:31:54.323Z,2.58
2023-01-17T15:34:45.849Z,2.20
2023-01-17T15:37:37.014Z,4.47
2023-01-17T15:40:07.245Z,3.47
2023-01-17T15:42:38.630Z,2.53
2023-01-17T15:45:11.671Z,2.95
2023-01-17T15:47:39.463Z,2.53
2023-01-17T15:50:26.704Z,2.95
2023-01-17T15:52:57.530Z,3.22
2023-01-17T15:55:37.320Z,2.85
2023-01-17T15:58:29.032Z,2.60
2023-01-17T16:00:56.877Z,2.60
2023-01-17T16:03:29.987Z,2.80
2023-01-17T16:06:00.355Z,1.75
2023-01-17T16:09:08.916Z,2.30
2023-01-17T16:11:36.585Z,4.28
2023-01-17T16:14:07.575Z,4.75
2023-01-17T16:16:35.328Z,1.77
2023-01-17T16:19:03.249Z,1.10
2023-01-17T16:21:32.169Z,1.30
2023-01-17T16:24:00.589Z,1.65
2023-01-17T16:26:29.415Z,1.60
2023-01-17T16:28:57.186Z,1.13
2023-01-17T16:31:24.921Z,1.40
2023-01-17T16:33:52.684Z,2.10
2023-01-17T16:36:23.005Z,3.67
2023-01-17T16:38:51.542Z,3.67
2023-01-17T16:41:20.335Z,3.08
2023-01-17T16:43:58.240Z,2.25
2023-01-17T16:46:26.131Z,2.63
2023-01-17T16:48:53.734Z,3.05
2023-01-17T16:51:21.526Z,1.85
2023-01-17T16:53:49.838Z,3.00
2023-01-17T16:56:19.262Z,1.15
2023-01-17T16:58:46.830Z,2.38
2023-01-17T17:01:17.066Z,2.03
2023-01-17T17:03:46.051Z,1.10
2023-01-17T17:06:15.071Z,1.67
2023-01-17T17:08:43.267Z,1.52
2023-01-17T17:11:23.294Z,1.48
2023-01-17T17:13:52.146Z,1.40
2023-01-17T17:16:22.602Z,1.38
2023-01-17T17:18:59.893Z,2.15
2023-01-17T17:21:29.307Z,2.47
2023-01-17T17:23:59.231Z,2.80
2023-01-17T17:26:31.145Z,3.03
2023-01-17T17:28:59.155Z,2.65
2023-01-17T17:31:27.413Z,2.35
2023-01-17T17:33:58.824Z,2.58
2023-01-17T17:36:27.056Z,2.75
2023-01-17T17:38:55.828Z,2.08
2023-01-17T17:41:29.272Z,2.83
2023-01-17T17:44:02.817Z,2.72
2023-01-17T17:47:07.251Z,2.25
2023-01-17T17:49:34.841Z,3.13
2023-01-17T17:52:09.713Z,2.45
2023-01-17T17:54:37.635Z,2.10
2023-01-17T17:57:05.266Z,2.28
2023-01-17T17:59:33.005Z,2.58
2023-01-17T18:02:00.836Z,3.03
2023-01-17T18:04:28.484Z,3.15
2023-01-17T18:06:57.564Z,2.60
2023-01-17T18:09:25.222Z,2.42
2023-01-17T18:11:55.642Z,2.10
2023-01-17T18:14:24.447Z,2.17
2023-01-17T18:16:52.401Z,1.80
2023-01-17T18:19:23.030Z,2.33
2023-01-17T18:21:51.512Z,2.50
2023-01-17T18:24:22.023Z,3.67
2023-01-17T18:26:53.365Z,15.40
2023-01-17T18:29:22.528Z,14.70
2023-01-17T18:31:51.415Z,16.95
2023-01-17T18:34:29.237Z,4.22
2023-01-17T18:36:57.943Z,3.35
2023-01-17T18:39:28.478Z,3.00
2023-01-17T18:41:57.433Z,3.92
2023-01-17T18:44:27.393Z,2.83
2023-01-17T18:46:55.996Z,3.10
2023-01-17T18:49:23.601Z,2.50
2023-01-17T18:51:51.730Z,2.45
2023-01-17T18:54:20.498Z,2.38
2023-01-17T18:56:48.779Z,3.22
2023-01-17T18:59:25.954Z,2.88
2023-01-17T19:01:53.708Z,3.22
2023-01-17T19:04:21.606Z,3.08
2023-01-17T19:06:49.448Z,3.05
2023-01-17T19:09:17.575Z,2.97
2023-01-17T19:11:46.264Z,2.58
2023-01-17T19:14:14.547Z,2.65
2023-01-17T19:16:43.126Z,2.17
2023-01-17T19:19:14.078Z,3.13
2023-01-17T19:21:42.092Z,2.60
2023-01-17T19:24:13.254Z,2.42
2023-01-17T19:26:41.910Z,2.15
2023-01-17T19:29:09.610Z,2.72
2023-01-17T19:31:43.342Z,2.35
2023-01-17T19:34:14.023Z,2.60
2023-01-17T19:36:42.066Z,3.67
2023-01-17T19:39:10.115Z,2.70
2023-01-17T19:41:42.375Z,2.28
2023-01-17T19:44:12.016Z,3.47
2023-01-17T19:46:39.851Z,2.70
2023-01-17T19:49:08.625Z,3.38
2023-01-17T19:51:36.648Z,3.40
2023-01-17T19:54:06.513Z,2.83
2023-01-17T19:56:34.898Z,2.42
2023-01-17T19:59:02.625Z,2.58
2023-01-17T20:01:32.700Z,2.72
2023-01-17T20:04:01.831Z,2.47
2023-01-17T20:06:32.502Z,3.47
2023-01-17T20:09:00.225Z,3.50
2023-01-17T20:11:28.806Z,2.45
2023-01-17T20:13:58.435Z,2.38
2023-01-17T20:16:29.268Z,2.70
2023-01-17T20:19:02.776Z,2.13
2023-01-17T20:21:31.518Z,2.67
2023-01-17T20:24:01.284Z,2.53
2023-01-17T20:26:36.230Z,3.17
2023-01-17T20:29:10.916Z,2.43
2023-01-17T20:31:42.941Z,1.98
2023-01-17T20:34:13.428Z,2.03
2023-01-17T20:36:47.263Z,2.88
2023-01-17T20:39:16.153Z,2.40
2023-01-17T20:41:46.453Z,2.20
2023-01-17T20:44:27.528Z,2.72
2023-01-17T20:46:55.395Z,2.53
2023-01-17T20:49:26.515Z,2.83
2023-01-17T20:51:55.341Z,2.33
2023-01-17T20:54:23.663Z,2.33
2023-01-17T20:56:58.062Z,2.60
2023-01-17T20:59:25.809Z,2.70
2023-01-17T21:04:35.128Z,2.35
2023-01-17T21:07:02.792Z,2.42
2023-01-17T21:09:30.349Z,2.92
2023-01-17T21:12:01.324Z,2.15
2023-01-17T21:14:29.515Z,2.75
2023-01-17T21:16:57.101Z,2.22
2023-01-17T21:19:24.796Z,2.45
2023-01-17T21:21:52.432Z,2.78
2023-01-17T21:24:20.136Z,2.80
2023-01-17T21:26:49.681Z,2.85
2023-01-17T21:29:17.256Z,2.78
2023-01-17T21:31:45.315Z,2.83
2023-01-17T21:34:13.734Z,2.30
2023-01-17T21:36:42.668Z,2.45
2023-01-17T21:39:15.684Z,2.80
2023-01-17T21:41:45.833Z,2.65
2023-01-17T21:44:19.935Z,2.70
2023-01-17T21:46:48.451Z,2.85
2023-01-17T21:49:17.263Z,2.90
2023-01-17T21:51:54.330Z,2.30
2023-01-17T21:54:44.772Z,2.70
2023-01-17T21:57:33.022Z,2.22
2023-01-17T22:00:04.533Z,2.63
2023-01-17T22:02:41.304Z,2.45
2023-01-17T22:05:10.145Z,2.60
2023-01-17T22:07:39.105Z,3.20
2023-01-17T22:10:07.488Z,1.88
2023-01-17T22:12:35.031Z,2.30
2023-01-17T22:15:02.809Z,2.47
2023-01-17T22:17:30.750Z,2.78
2023-01-17T22:19:58.275Z,2.38
2023-01-17T22:22:25.929Z,2.67
2023-01-17T22:24:53.502Z,2.15
2023-01-17T22:27:21.066Z,2.22
2023-01-17T22:29:48.644Z,2.45
2023-01-17T22:32:16.191Z,2.78
2023-01-17T22:34:43.735Z,3.15
2023-01-17T22:37:11.288Z,2.63
2023-01-17T22:39:39.370Z,2.40
2023-01-17T22:42:07.280Z,2.85
2023-01-17T22:44:34.936Z,2.08
2023-01-17T22:47:03.267Z,2.35
2023-01-17T22:49:30.891Z,2.55
2023-01-17T22:51:59.417Z,2.65
2023-01-17T22:54:26.970Z,2.65
2023-01-17T22:56:54.580Z,2.25
2023-01-17T22:59:22.159Z,2.42
2023-01-17T23:01:49.809Z,2.28
2023-01-17T23:04:17.387Z,1.77
2023-01-17T23:06:44.931Z,1.63
2023-01-17T23:09:15.578Z,1.45
2023-01-17T23:11:50.830Z,2.20
2023-01-17T23:14:18.399Z,2.03
2023-01-17T23:17:10.822Z,1.55
2023-01-17T23:19:42.401Z,1.88
2023-01-17T23:22:19.429Z,1.50
2023-01-17T23:24:49.952Z,2.30
2023-01-17T23:27:44.306Z,1.60
2023-01-17T23:30:17.368Z,1.70
2023-01-17T23:32:47.651Z,1.70
2023-01-17T23:35:16.960Z,1.75
2023-01-17T23:38:03.010Z,2.22
2023-01-17T23:40:35.473Z,1.67
2023-01-17T23:43:22.364Z,1.95
2023-01-17T23:45:54.223Z,1.50
2023-01-17T23:48:25.500Z,1.77
2023-01-17T23:51:02.314Z,1.55
2023-01-17T23:53:29.973Z,1.77
2023-01-17T23:55:59.681Z,1.95
2023-01-17T23:58:28.210Z,1.98
